createdAt,value
2018-11-07T00:00:52.251Z,101013.34
2018-11-07T00:01:52.902Z,101012.58
2018-11-07T00:02:52.188Z,101012.53
2018-11-07T00:03:52.719Z,101012.47
2018-11-07T00:04:52.848Z,101012.00
2018-11-07T00:05:53.593Z,101012.11
2018-11-07T00:06:55.456Z,101011.89
2018-11-07T00:07:55.025Z,101012.00
2018-11-07T00:08:03.660Z,101011.81
2018-11-07T00:09:03.436Z,101011.98
2018-11-07T00:10:04.296Z,101011.73
2018-11-07T00:11:05.069Z,101011.05
2018-11-07T00:12:05.327Z,101011.00
2018-11-07T00:13:05.906Z,101011.59
2018-11-07T00:14:06.508Z,101011.95
2018-11-07T00:15:06.559Z,101012.04
2018-11-07T00:16:07.839Z,101012.04
2018-11-07T00:17:08.193Z,101012.32
2018-11-07T00:18:08.627Z,101012.85
2018-11-07T00:19:09.323Z,101013.13
2018-11-07T00:20:10.282Z,101014.14
2018-11-07T00:21:09.740Z,101014.59
2018-11-07T00:22:11.060Z,101015.54
2018-11-07T00:23:11.402Z,101016.08
2018-11-07T00:24:12.011Z,101016.19
2018-11-07T00:25:11.403Z,101016.61
2018-11-07T00:26:12.286Z,101017.05
2018-11-07T00:27:12.599Z,101017.67
2018-11-07T00:28:14.239Z,101018.12
2018-11-07T00:29:13.777Z,101019.46
2018-11-07T00:30:14.379Z,101019.91
2018-11-07T00:31:15.240Z,101020.36
2018-11-07T00:32:15.486Z,101020.98
2018-11-07T00:33:15.762Z,101022.15
2018-11-07T00:34:16.126Z,101023.30
2018-11-07T00:35:17.081Z,101024.00
2018-11-07T00:36:16.872Z,101024.20
2018-11-07T00:37:17.495Z,101024.39
2018-11-07T00:38:18.769Z,101024.42
2018-11-07T00:39:19.640Z,101023.86
2018-11-07T00:40:20.061Z,101023.49
2018-11-07T00:41:21.411Z,101023.86
2018-11-07T00:42:20.566Z,101024.05
2018-11-07T00:43:21.141Z,101023.91
2018-11-07T00:44:21.139Z,101024.19
2018-11-07T00:45:22.349Z,101024.41
2018-11-07T00:46:23.316Z,101024.09
2018-11-07T00:47:22.946Z,101023.66
2018-11-07T00:48:24.574Z,101023.77
2018-11-07T00:49:24.872Z,101024.41
2018-11-07T00:50:25.335Z,101024.94
2018-11-07T00:51:24.722Z,101024.96
2018-11-07T00:52:24.935Z,101025.05
2018-11-07T00:53:25.160Z,101024.77
2018-11-07T00:54:27.307Z,101025.09
2018-11-07T00:55:27.122Z,101025.46
2018-11-07T00:56:27.703Z,101025.38
2018-11-07T00:57:29.314Z,101026.47
2018-11-07T00:58:29.890Z,101027.00
2018-11-07T00:59:28.809Z,101027.45
2018-11-07T01:00:29.025Z,101028.37
2018-11-07T01:01:29.458Z,101029.16
2018-11-07T01:02:30.908Z,101029.59
2018-11-07T01:03:30.189Z,101030.27
2018-11-07T01:04:32.949Z,101030.21
2018-11-07T01:05:30.978Z,101030.58
2018-11-07T01:06:32.216Z,101031.41
2018-11-07T01:07:32.719Z,101031.27
2018-11-07T01:08:31.590Z,101031.58
2018-11-07T01:09:33.246Z,101033.04
2018-11-07T01:10:32.668Z,101034.41
2018-11-07T01:11:33.043Z,101035.69
2018-11-07T01:12:34.961Z,101036.89
2018-11-07T01:13:35.104Z,101038.42
2018-11-07T01:14:35.282Z,101039.63
2018-11-07T01:15:35.564Z,101040.24
2018-11-07T01:16:36.037Z,101040.63
2018-11-07T01:17:35.308Z,101041.39
2018-11-07T01:18:36.694Z,101041.66
2018-11-07T01:18:44.770Z,101043.12
2018-11-07T01:19:46.318Z,101042.53
2018-11-07T01:20:46.118Z,101041.86
2018-11-07T01:21:51.219Z,101041.52
2018-11-07T01:22:47.334Z,101041.27
2018-11-07T01:23:48.628Z,101040.87
2018-11-07T01:24:48.930Z,101041.20
2018-11-07T01:25:49.392Z,101040.95
2018-11-07T01:26:49.704Z,101041.30
2018-11-07T01:27:50.086Z,101041.80
2018-11-07T01:28:50.549Z,101041.70
2018-11-07T01:29:51.086Z,101041.83
2018-11-07T01:30:51.436Z,101042.08
2018-11-07T01:31:51.674Z,101042.16
2018-11-07T01:32:52.309Z,101042.41
2018-11-07T01:33:52.591Z,101043.08
2018-11-07T01:34:53.073Z,101043.41
2018-11-07T01:35:53.360Z,101043.75
2018-11-07T01:36:53.579Z,101044.34
2018-11-07T01:37:53.876Z,101045.27
2018-11-07T01:38:54.695Z,101046.02
2018-11-07T01:39:55.206Z,101047.08
2018-11-07T01:40:55.499Z,101047.59
2018-11-07T01:41:56.335Z,101048.68
2018-11-07T01:42:55.667Z,101048.68
2018-11-07T01:43:57.323Z,101048.52
2018-11-07T01:44:57.602Z,101049.02
2018-11-07T01:45:57.951Z,101048.59
2018-11-07T01:46:58.244Z,101048.70
2018-11-07T01:47:58.634Z,101048.95
2018-11-07T01:48:58.926Z,101048.79
2018-11-07T01:49:59.219Z,101049.23
2018-11-07T01:50:59.448Z,101049.23
2018-11-07T01:52:00.229Z,101049.59
2018-11-07T01:53:00.552Z,101049.42
2018-11-07T01:54:00.756Z,101049.45
2018-11-07T01:55:02.217Z,101049.88
2018-11-07T01:56:01.616Z,101049.40
2018-11-07T01:57:01.838Z,101049.31
2018-11-07T01:58:02.360Z,101049.39
2018-11-07T01:58:10.442Z,101043.01
2018-11-07T01:59:11.677Z,101042.58
2018-11-07T02:00:12.099Z,101042.25
2018-11-07T02:01:12.814Z,101041.91
2018-11-07T02:02:13.346Z,101041.66
2018-11-07T02:03:13.967Z,101041.66
2018-11-07T02:04:14.362Z,101041.33
2018-11-07T02:05:15.168Z,101041.07
2018-11-07T02:06:15.501Z,101040.56
2018-11-07T02:07:15.794Z,101040.34
2018-11-07T02:08:16.129Z,101040.41
2018-11-07T02:09:16.421Z,101040.56
2018-11-07T02:10:16.872Z,101039.90
2018-11-07T02:11:18.308Z,101040.06
2018-11-07T02:12:17.966Z,101040.23
2018-11-07T02:13:18.810Z,101040.73
2018-11-07T02:14:19.361Z,101040.43
2018-11-07T02:15:19.845Z,101040.26
2018-11-07T02:16:20.199Z,101040.45
2018-11-07T02:17:20.436Z,101040.73
2018-11-07T02:18:20.836Z,101041.73
2018-11-07T02:19:21.169Z,101042.44
2018-11-07T02:20:21.583Z,101043.27
2018-11-07T02:21:21.863Z,101044.22
2018-11-07T02:22:23.098Z,101044.55
2018-11-07T02:23:22.574Z,101044.42
2018-11-07T02:24:23.027Z,101044.50
2018-11-07T02:25:23.441Z,101044.33
2018-11-07T02:26:23.808Z,101044.52
2018-11-07T02:27:23.333Z,101044.55
2018-11-07T02:28:24.758Z,101044.55
2018-11-07T02:29:25.031Z,101044.58
2018-11-07T02:30:25.423Z,101044.66
2018-11-07T02:31:26.043Z,101044.57
2018-11-07T02:32:26.382Z,101044.57
2018-11-07T02:33:26.760Z,101044.15
2018-11-07T02:34:27.168Z,101043.51
2018-11-07T02:35:27.441Z,101043.17
2018-11-07T02:36:27.879Z,101042.41
2018-11-07T02:37:28.216Z,101042.58
2018-11-07T02:38:28.559Z,101042.16
2018-11-07T02:39:28.817Z,101041.77
2018-11-07T02:40:29.120Z,101041.69
2018-11-07T02:41:29.575Z,101041.59
2018-11-07T02:42:29.889Z,101041.13
2018-11-07T02:42:42.020Z,101028.27
2018-11-07T02:43:43.256Z,101028.19
2018-11-07T02:44:43.521Z,101028.69
2018-11-07T02:45:43.944Z,101029.19
2018-11-07T02:46:44.314Z,101029.95
2018-11-07T02:47:44.781Z,101029.86
2018-11-07T02:48:45.222Z,101030.65
2018-11-07T02:49:45.232Z,101031.48
2018-11-07T02:50:45.653Z,101032.88
2018-11-07T02:51:46.071Z,101033.39
2018-11-07T02:52:46.346Z,101034.06
2018-11-07T02:53:46.795Z,101034.90
2018-11-07T02:54:46.849Z,101035.19
2018-11-07T02:55:47.279Z,101035.44
2018-11-07T02:56:47.540Z,101036.44
2018-11-07T02:57:47.809Z,101037.27
2018-11-07T02:58:48.231Z,101038.05
2018-11-07T02:59:48.773Z,101038.73
2018-11-07T03:00:49.051Z,101038.42
2018-11-07T03:01:49.352Z,101038.67
2018-11-07T03:02:49.603Z,101038.36
2018-11-07T03:03:49.904Z,101038.44
2018-11-07T03:04:50.192Z,101038.36
2018-11-07T03:05:50.489Z,101038.36
2018-11-07T03:06:51.174Z,101037.77
2018-11-07T03:07:51.472Z,101037.27
2018-11-07T03:08:52.023Z,101036.59
2018-11-07T03:09:52.336Z,101036.00
2018-11-07T03:10:52.716Z,101034.83
2018-11-07T03:11:53.222Z,101033.83
2018-11-07T03:12:53.573Z,101033.23
2018-11-07T03:13:53.873Z,101031.89
2018-11-07T03:14:54.430Z,101030.47
2018-11-07T03:15:54.713Z,101029.27
2018-11-07T03:16:55.028Z,101028.34
2018-11-07T03:17:55.533Z,101028.23
2018-11-07T03:18:54.547Z,101027.98
2018-11-07T03:19:55.918Z,101028.05
2018-11-07T03:20:56.385Z,101028.72
2018-11-07T03:21:56.897Z,101029.02
2018-11-07T03:22:57.456Z,101029.20
2018-11-07T03:23:57.731Z,101029.00
2018-11-07T03:24:57.987Z,101029.50
2018-11-07T03:25:58.415Z,101029.39
2018-11-07T03:26:58.692Z,101029.73
2018-11-07T03:27:59.058Z,101030.16
2018-11-07T03:28:07.425Z,101039.77
2018-11-07T03:29:08.752Z,101039.05
2018-11-07T03:30:09.218Z,101038.54
2018-11-07T03:31:09.526Z,101037.53
2018-11-07T03:32:09.810Z,101036.52
2018-11-07T03:33:10.179Z,101036.05
2018-11-07T03:34:10.542Z,101034.53
2018-11-07T03:35:10.815Z,101033.72
2018-11-07T03:36:11.172Z,101032.88
2018-11-07T03:37:11.431Z,101032.06
2018-11-07T03:38:11.795Z,101030.67
2018-11-07T03:39:12.091Z,101029.85
2018-11-07T03:40:12.372Z,101029.04
2018-11-07T03:41:12.736Z,101029.06
2018-11-07T03:42:13.107Z,101028.41
2018-11-07T03:43:13.403Z,101028.02
2018-11-07T03:44:13.679Z,101027.30
2018-11-07T03:45:13.928Z,101027.20
2018-11-07T03:46:14.369Z,101027.14
2018-11-07T03:47:14.731Z,101026.75
2018-11-07T03:48:15.074Z,101026.66
2018-11-07T03:49:15.324Z,101025.77
2018-11-07T03:50:15.752Z,101024.95
2018-11-07T03:51:16.234Z,101023.95
2018-11-07T03:52:17.485Z,101022.71
2018-11-07T03:53:17.142Z,101021.98
2018-11-07T03:54:16.278Z,101021.34
2018-11-07T03:55:17.603Z,101021.28
2018-11-07T03:56:17.894Z,101020.18
2018-11-07T03:57:18.278Z,101019.63
2018-11-07T03:58:18.855Z,101018.47
2018-11-07T03:59:19.328Z,101018.00
2018-11-07T04:00:19.622Z,101016.42
2018-11-07T04:01:20.038Z,101016.00
2018-11-07T04:02:20.364Z,101015.50
2018-11-07T04:03:20.821Z,101014.44
2018-11-07T04:04:21.296Z,101013.95
2018-11-07T04:05:21.757Z,101013.88
2018-11-07T04:06:22.354Z,101013.98
2018-11-07T04:07:22.710Z,101013.25
2018-11-07T04:08:22.978Z,101013.11
2018-11-07T04:09:23.297Z,101013.13
2018-11-07T04:10:23.962Z,101013.23
2018-11-07T04:11:24.355Z,101013.34
2018-11-07T04:12:24.662Z,101013.73
2018-11-07T04:13:25.043Z,101014.17
2018-11-07T04:13:33.553Z,101017.99
2018-11-07T04:14:34.192Z,101017.91
2018-11-07T04:15:34.498Z,101018.08
2018-11-07T04:16:34.859Z,101017.99
2018-11-07T04:17:35.228Z,101017.55
2018-11-07T04:18:35.563Z,101016.96
2018-11-07T04:19:35.876Z,101016.45
2018-11-07T04:20:36.200Z,101016.63
2018-11-07T04:21:36.535Z,101016.28
2018-11-07T04:22:36.854Z,101015.36
2018-11-07T04:23:37.204Z,101014.55
2018-11-07T04:24:37.451Z,101013.55
2018-11-07T04:25:37.896Z,101012.89
2018-11-07T04:26:38.514Z,101013.14
2018-11-07T04:27:39.004Z,101012.50
2018-11-07T04:28:39.408Z,101011.77
2018-11-07T04:29:39.721Z,101011.97
2018-11-07T04:30:40.092Z,101012.16
2018-11-07T04:31:40.370Z,101012.34
2018-11-07T04:32:40.655Z,101012.62
2018-11-07T04:33:40.933Z,101013.03
2018-11-07T04:34:41.291Z,101012.89
2018-11-07T04:35:41.681Z,101013.33
2018-11-07T04:36:41.982Z,101013.52
2018-11-07T04:37:42.436Z,101012.87
2018-11-07T04:38:43.077Z,101012.90
2018-11-07T04:39:43.411Z,101012.00
2018-11-07T04:40:43.842Z,101011.83
2018-11-07T04:41:44.739Z,101011.44
2018-11-07T04:42:44.967Z,101011.03
2018-11-07T04:43:45.314Z,101010.89
2018-11-07T04:44:46.931Z,101010.95
2018-11-07T04:45:46.319Z,101011.97
2018-11-07T04:46:46.686Z,101012.16
2018-11-07T04:47:47.335Z,101012.52
2018-11-07T04:48:47.655Z,101013.05
2018-11-07T04:49:48.046Z,101013.81
2018-11-07T04:50:48.406Z,101014.76
2018-11-07T04:51:48.684Z,101015.65
2018-11-07T04:52:49.016Z,101016.56
2018-11-07T04:53:49.254Z,101017.42
2018-11-07T04:54:49.704Z,101018.62
2018-11-07T04:55:49.985Z,101019.17
2018-11-07T04:56:50.234Z,101020.09
2018-11-07T04:57:50.666Z,101021.03
2018-11-07T04:58:51.087Z,101022.06
2018-11-07T04:58:59.486Z,101047.09
2018-11-07T05:00:00.856Z,101046.34
2018-11-07T05:01:00.125Z,101046.77
2018-11-07T05:02:01.435Z,101046.77
2018-11-07T05:03:02.085Z,101046.93
2018-11-07T05:04:02.458Z,101046.77
2018-11-07T05:05:02.823Z,101047.02
2018-11-07T05:06:03.231Z,101046.91
2018-11-07T05:07:03.722Z,101047.16
2018-11-07T05:08:04.077Z,101047.16
2018-11-07T05:09:04.806Z,101047.41
2018-11-07T05:10:05.029Z,101047.58
2018-11-07T05:11:05.508Z,101047.16
2018-11-07T05:12:05.834Z,101046.91
2018-11-07T05:13:06.109Z,101046.67
2018-11-07T05:14:06.671Z,101046.53
2018-11-07T05:15:07.122Z,101046.69
2018-11-07T05:16:07.572Z,101046.05
2018-11-07T05:17:07.947Z,101045.96
2018-11-07T05:18:08.304Z,101045.66
2018-11-07T05:19:08.652Z,101045.91
2018-11-07T05:20:08.927Z,101046.02
2018-11-07T05:21:09.233Z,101046.34
2018-11-07T05:22:09.500Z,101046.11
2018-11-07T05:23:09.522Z,101046.47
2018-11-07T05:24:09.793Z,101047.24
2018-11-07T05:25:10.244Z,101047.34
2018-11-07T05:26:10.841Z,101046.92
2018-11-07T05:27:10.083Z,101046.86
2018-11-07T05:28:11.501Z,101046.88
2018-11-07T05:29:11.742Z,101046.91
2018-11-07T05:30:12.003Z,101046.75
2018-11-07T05:31:12.366Z,101047.03
2018-11-07T05:32:12.863Z,101047.21
2018-11-07T05:33:13.151Z,101047.91
2018-11-07T05:34:13.905Z,101048.68
2018-11-07T05:35:14.156Z,101048.87
2018-11-07T05:36:14.870Z,101049.34
2018-11-07T05:37:15.311Z,101050.02
2018-11-07T05:38:15.691Z,101050.31
2018-11-07T05:39:16.162Z,101051.20
2018-11-07T05:40:16.602Z,101051.88
2018-11-07T05:41:17.116Z,101053.07
2018-11-07T05:42:16.244Z,101054.12
2018-11-07T05:43:18.674Z,101054.84
2018-11-07T05:44:18.107Z,101055.44
2018-11-07T05:45:18.663Z,101056.20
2018-11-07T05:46:19.064Z,101056.84
2018-11-07T05:46:27.761Z,101067.89
2018-11-07T05:47:28.025Z,101068.05
2018-11-07T05:48:29.407Z,101067.89
2018-11-07T05:49:29.840Z,101068.39
2018-11-07T05:50:30.097Z,101068.22
2018-11-07T05:51:30.457Z,101068.78
2018-11-07T05:52:30.796Z,101068.86
2018-11-07T05:53:31.080Z,101069.62
2018-11-07T05:54:31.352Z,101070.05
2018-11-07T05:55:31.642Z,101070.94
2018-11-07T05:56:31.966Z,101071.70
2018-11-07T05:57:32.471Z,101071.70
2018-11-07T05:58:32.791Z,101071.86
2018-11-07T05:59:33.388Z,101071.70
2018-11-07T06:00:33.785Z,101071.86
2018-11-07T06:01:34.083Z,101071.94
2018-11-07T06:02:34.623Z,101071.05
2018-11-07T06:03:34.990Z,101069.79
2018-11-07T06:04:35.912Z,101068.86
2018-11-07T06:05:36.359Z,101068.03
2018-11-07T06:06:36.711Z,101066.59
2018-11-07T06:07:36.801Z,101066.09
2018-11-07T06:08:37.062Z,101064.42
2018-11-07T06:09:37.347Z,101063.17
2018-11-07T06:10:37.605Z,101062.42
2018-11-07T06:11:38.071Z,101061.08
2018-11-07T06:12:38.383Z,101060.16
2018-11-07T06:13:38.691Z,101058.99
2018-11-07T06:14:39.052Z,101057.98
2018-11-07T06:15:39.328Z,101057.06
2018-11-07T06:16:39.729Z,101055.97
2018-11-07T06:17:40.037Z,101054.71
2018-11-07T06:18:40.411Z,101053.87
2018-11-07T06:19:40.822Z,101052.73
2018-11-07T06:20:41.176Z,101052.08
2018-11-07T06:21:41.478Z,101051.57
2018-11-07T06:22:41.809Z,101050.93
2018-11-07T06:23:42.188Z,101051.43
2018-11-07T06:24:42.588Z,101052.02
2018-11-07T06:25:41.850Z,101052.43
2018-11-07T06:26:43.151Z,101053.01
2018-11-07T06:27:43.449Z,101053.30
2018-11-07T06:28:43.717Z,101053.63
2018-11-07T06:29:43.978Z,101054.79
2018-11-07T06:30:44.506Z,101055.23
2018-11-07T06:31:44.983Z,101055.92
2018-11-07T06:32:45.239Z,101056.16
2018-11-07T06:32:53.332Z,101063.64
2018-11-07T06:33:54.623Z,101063.22
2018-11-07T06:34:54.224Z,101063.30
2018-11-07T06:35:55.518Z,101063.41
2018-11-07T06:36:55.858Z,101063.33
2018-11-07T06:37:56.134Z,101063.07
2018-11-07T06:38:56.813Z,101062.48
2018-11-07T06:39:57.260Z,101062.48
2018-11-07T06:40:58.083Z,101062.48
2018-11-07T06:41:58.623Z,101062.41
2018-11-07T06:42:59.003Z,101062.16
2018-11-07T06:43:59.389Z,101061.80
2018-11-07T06:44:59.701Z,101061.72
2018-11-07T06:45:59.933Z,101062.03
2018-11-07T06:47:00.221Z,101061.44
2018-11-07T06:48:00.533Z,101061.36
2018-11-07T06:49:00.828Z,101061.45
2018-11-07T06:50:01.437Z,101061.63
2018-11-07T06:51:00.743Z,101061.87
2018-11-07T06:52:02.342Z,101061.95
2018-11-07T06:53:02.888Z,101062.37
2018-11-07T06:54:03.181Z,101063.20
2018-11-07T06:55:03.833Z,101063.53
2018-11-07T06:56:04.144Z,101064.15
2018-11-07T06:57:04.471Z,101064.56
2018-11-07T06:58:04.983Z,101065.06
2018-11-07T06:59:05.573Z,101065.23
2018-11-07T07:00:05.920Z,101065.31
2018-11-07T07:01:06.394Z,101065.73
2018-11-07T07:02:06.980Z,101065.91
2018-11-07T07:03:07.396Z,101066.23
2018-11-07T07:04:07.720Z,101066.16
2018-11-07T07:05:08.195Z,101065.82
2018-11-07T07:06:08.495Z,101066.21
2018-11-07T07:07:08.801Z,101066.13
2018-11-07T07:08:09.463Z,101065.82
2018-11-07T07:09:09.736Z,101065.56
2018-11-07T07:10:10.055Z,101065.56
2018-11-07T07:11:10.406Z,101065.32
2018-11-07T07:12:10.713Z,101065.20
2018-11-07T07:13:11.023Z,101064.70
2018-11-07T07:14:11.341Z,101064.48
2018-11-07T07:15:11.633Z,101063.81
2018-11-07T07:16:12.116Z,101063.98
2018-11-07T07:17:11.614Z,101064.23
2018-11-07T07:18:12.478Z,101064.31
2018-11-07T07:19:12.879Z,101065.14
2018-11-07T07:20:14.139Z,101065.65
2018-11-07T07:21:14.413Z,101065.98
2018-11-07T07:21:23.357Z,101076.78
2018-11-07T07:22:24.244Z,101075.52
2018-11-07T07:23:25.216Z,101075.94
2018-11-07T07:24:24.790Z,101075.27
2018-11-07T07:25:25.263Z,101075.02
2018-11-07T07:26:24.634Z,101074.41
2018-11-07T07:27:25.922Z,101073.99
2018-11-07T07:28:26.358Z,101073.58
2018-11-07T07:29:27.725Z,101073.39
2018-11-07T07:30:27.048Z,101073.23
2018-11-07T07:31:26.482Z,101072.95
2018-11-07T07:32:27.742Z,101073.21
2018-11-07T07:33:28.123Z,101072.77
2018-11-07T07:34:27.373Z,101072.02
2018-11-07T07:35:28.642Z,101072.19
2018-11-07T07:36:28.917Z,101071.66
2018-11-07T07:37:29.173Z,101071.00
2018-11-07T07:38:29.630Z,101070.05
2018-11-07T07:39:29.877Z,101069.55
2018-11-07T07:40:30.406Z,101069.10
2018-11-07T07:41:30.674Z,101068.70
2018-11-07T07:42:30.742Z,101068.08
2018-11-07T07:43:31.311Z,101068.00
2018-11-07T07:44:31.918Z,101067.50
2018-11-07T07:45:32.249Z,101067.25
2018-11-07T07:46:31.625Z,101066.66
2018-11-07T07:47:32.901Z,101066.58
2018-11-07T07:48:33.264Z,101065.91
2018-11-07T07:49:33.593Z,101065.83
2018-11-07T07:50:34.077Z,101065.72
2018-11-07T07:51:34.461Z,101065.30
2018-11-07T07:52:33.651Z,101064.89
2018-11-07T07:53:35.014Z,101064.13
2018-11-07T07:54:35.346Z,101063.20
2018-11-07T07:55:35.660Z,101062.81
2018-11-07T07:56:35.997Z,101062.48
2018-11-07T07:57:36.439Z,101062.70
2018-11-07T07:58:36.839Z,101062.45
2018-11-07T07:59:37.228Z,101062.63
2018-11-07T08:00:37.568Z,101062.94
2018-11-07T08:01:37.924Z,101063.67
2018-11-07T08:02:38.601Z,101064.83
2018-11-07T08:03:38.962Z,101065.22
2018-11-07T08:04:39.294Z,101065.88
2018-11-07T08:05:39.644Z,101066.36
2018-11-07T08:06:39.871Z,101067.27
2018-11-07T08:07:40.115Z,101068.34
2018-11-07T08:07:48.462Z,101081.63
2018-11-07T08:08:49.749Z,101081.80
2018-11-07T08:09:50.473Z,101081.45
2018-11-07T08:10:50.746Z,101081.68
2018-11-07T08:11:50.966Z,101081.60
2018-11-07T08:12:51.349Z,101081.91
2018-11-07T08:13:51.664Z,101082.00
2018-11-07T08:14:51.362Z,101082.25
2018-11-07T08:15:52.682Z,101081.58
2018-11-07T08:16:53.036Z,101081.58
2018-11-07T08:17:53.387Z,101081.67
2018-11-07T08:18:53.645Z,101081.05
2018-11-07T08:19:53.961Z,101080.38
2018-11-07T08:20:54.338Z,101079.89
2018-11-07T08:21:54.934Z,101079.64
2018-11-07T08:22:55.286Z,101079.02
2018-11-07T08:23:55.532Z,101078.86
2018-11-07T08:24:56.227Z,101078.25
2018-11-07T08:25:57.505Z,101078.17
2018-11-07T08:26:56.847Z,101077.98
2018-11-07T08:27:57.173Z,101077.82
2018-11-07T08:28:57.444Z,101077.46
2018-11-07T08:29:57.732Z,101077.52
2018-11-07T08:30:58.149Z,101076.69
2018-11-07T08:31:57.390Z,101076.84
2018-11-07T08:32:58.714Z,101076.23
2018-11-07T08:33:59.016Z,101075.70
2018-11-07T08:34:59.425Z,101075.74
2018-11-07T08:35:59.759Z,101075.31
2018-11-07T08:37:00.136Z,101075.30
2018-11-07T08:37:59.735Z,101074.66
2018-11-07T08:39:03.866Z,101074.39
2018-11-07T08:40:00.334Z,101074.44
2018-11-07T08:41:01.686Z,101074.47
2018-11-07T08:42:01.966Z,101074.34
2018-11-07T08:43:02.381Z,101074.00
2018-11-07T08:44:02.750Z,101073.78
2018-11-07T08:45:03.065Z,101073.99
2018-11-07T08:46:03.448Z,101073.48
2018-11-07T08:47:03.908Z,101073.58
2018-11-07T08:48:04.266Z,101073.14
2018-11-07T08:49:03.479Z,101072.90
2018-11-07T08:50:04.844Z,101072.36
2018-11-07T08:51:05.376Z,101072.48
2018-11-07T08:52:05.726Z,101072.20
2018-11-07T08:53:06.057Z,101071.65
2018-11-07T08:54:06.628Z,101071.91
2018-11-07T08:55:07.075Z,101071.54
2018-11-07T08:56:06.329Z,101071.92
2018-11-07T08:57:07.602Z,101071.88
2018-11-07T08:57:15.953Z,101071.66
2018-11-07T08:58:17.264Z,101071.48
2018-11-07T08:59:17.656Z,101070.81
2018-11-07T09:00:18.033Z,101070.56
2018-11-07T09:01:18.923Z,101069.90
2018-11-07T09:02:18.228Z,101070.31
2018-11-07T09:03:18.667Z,101069.62
2018-11-07T09:04:20.357Z,101069.17
2018-11-07T09:05:20.606Z,101068.90
2018-11-07T09:06:21.014Z,101068.66
2018-11-07T09:07:21.757Z,101068.21
2018-11-07T09:08:22.117Z,101067.85
2018-11-07T09:09:22.360Z,101067.07
2018-11-07T09:10:22.710Z,101067.14
2018-11-07T09:11:23.130Z,101066.44
2018-11-07T09:12:23.442Z,101066.22
2018-11-07T09:13:23.801Z,101065.95
2018-11-07T09:14:24.100Z,101065.81
2018-11-07T09:15:24.411Z,101065.97
2018-11-07T09:16:24.676Z,101065.92
2018-11-07T09:17:25.019Z,101065.09
2018-11-07T09:18:25.371Z,101064.77
2018-11-07T09:19:25.594Z,101064.95
2018-11-07T09:20:25.865Z,101064.45
2018-11-07T09:21:26.117Z,101063.66
2018-11-07T09:22:26.609Z,101063.07
2018-11-07T09:23:26.938Z,101062.36
2018-11-07T09:24:27.186Z,101062.03
2018-11-07T09:25:27.463Z,101061.79
2018-11-07T09:26:27.777Z,101060.98
2018-11-07T09:27:28.237Z,101060.91
2018-11-07T09:28:28.589Z,101060.50
2018-11-07T09:29:30.103Z,101060.51
2018-11-07T09:30:29.613Z,101060.02
2018-11-07T09:31:29.917Z,101059.52
2018-11-07T09:32:30.275Z,101058.97
2018-11-07T09:33:30.796Z,101058.22
2018-11-07T09:34:31.445Z,101058.09
2018-11-07T09:35:31.674Z,101057.59
2018-11-07T09:36:32.223Z,101057.02
2018-11-07T09:37:32.634Z,101056.99
2018-11-07T09:38:33.010Z,101055.99
2018-11-07T09:39:33.407Z,101055.13
2018-11-07T09:40:33.649Z,101053.96
2018-11-07T09:41:34.118Z,101053.55
2018-11-07T09:42:34.809Z,101053.30
2018-11-07T09:43:35.134Z,101052.69
2018-11-07T09:43:43.530Z,101045.77
2018-11-07T09:44:44.969Z,101045.52
2018-11-07T09:45:44.265Z,101045.48
2018-11-07T09:46:45.707Z,101045.54
2018-11-07T09:47:46.273Z,101046.02
2018-11-07T09:48:46.537Z,101046.33
2018-11-07T09:49:46.853Z,101045.79
2018-11-07T09:50:47.101Z,101045.94
2018-11-07T09:51:47.547Z,101045.88
2018-11-07T09:52:47.972Z,101046.23
2018-11-07T09:53:48.599Z,101046.71
2018-11-07T09:54:48.213Z,101046.48
2018-11-07T09:55:50.086Z,101046.59
2018-11-07T09:56:50.592Z,101046.70
2018-11-07T09:57:51.027Z,101046.90
2018-11-07T09:58:51.744Z,101046.76
2018-11-07T09:59:52.109Z,101046.67
2018-11-07T10:00:51.921Z,101046.50
2018-11-07T10:01:52.120Z,101046.44
2018-11-07T10:02:53.255Z,101046.09
2018-11-07T10:03:53.554Z,101045.42
2018-11-07T10:04:53.788Z,101044.91
2018-11-07T10:05:53.037Z,101044.23
2018-11-07T10:06:54.616Z,101044.06
2018-11-07T10:07:55.105Z,101043.37
2018-11-07T10:08:54.440Z,101042.87
2018-11-07T10:09:56.219Z,101042.52
2018-11-07T10:10:56.419Z,101042.27
2018-11-07T10:11:56.711Z,101041.67
2018-11-07T10:12:57.034Z,101041.45
2018-11-07T10:13:57.469Z,101041.28
2018-11-07T10:14:57.944Z,101041.25
2018-11-07T10:15:58.391Z,101040.56
2018-11-07T10:16:58.701Z,101040.19
2018-11-07T10:17:58.995Z,101039.67
2018-11-07T10:18:59.354Z,101039.58
2018-11-07T10:19:59.739Z,101039.28
2018-11-07T10:21:00.472Z,101039.27
2018-11-07T10:22:01.370Z,101039.48
2018-11-07T10:23:01.684Z,101039.12
2018-11-07T10:24:02.026Z,101038.89
2018-11-07T10:25:02.693Z,101038.92
2018-11-07T10:25:11.065Z,101039.03
2018-11-07T10:26:12.283Z,101038.36
2018-11-07T10:27:12.756Z,101038.03
2018-11-07T10:28:12.132Z,101037.41
2018-11-07T10:29:12.627Z,101036.38
2018-11-07T10:30:12.992Z,101035.64
2018-11-07T10:31:13.045Z,101035.52
2018-11-07T10:32:14.385Z,101034.48
2018-11-07T10:33:14.730Z,101033.45
2018-11-07T10:34:15.223Z,101032.59
2018-11-07T10:35:16.548Z,101032.19
2018-11-07T10:36:15.837Z,101031.34
2018-11-07T10:37:16.328Z,101029.80
2018-11-07T10:38:16.657Z,101028.84
2018-11-07T10:39:16.019Z,101028.17
2018-11-07T10:40:17.368Z,101026.91
2018-11-07T10:41:16.635Z,101026.16
2018-11-07T10:42:17.902Z,101025.09
2018-11-07T10:43:18.282Z,101024.80
2018-11-07T10:44:19.333Z,101024.31
2018-11-07T10:45:18.641Z,101023.97
2018-11-07T10:46:19.888Z,101023.18
2018-11-07T10:47:20.296Z,101022.66
2018-11-07T10:48:20.666Z,101021.53
2018-11-07T10:49:21.229Z,101021.17
2018-11-07T10:50:59.279Z,101020.80
2018-11-07T10:51:23.768Z,101020.05
2018-11-07T10:52:21.997Z,101020.11
2018-11-07T10:53:23.051Z,101019.66
2018-11-07T10:54:23.361Z,101019.11
2018-11-07T10:55:40.982Z,101018.48
2018-11-07T10:56:23.861Z,101018.28
2018-11-07T10:57:31.331Z,101017.60
2018-11-07T10:58:24.540Z,101016.87
2018-11-07T10:59:25.815Z,101016.50
2018-11-07T11:00:25.959Z,101015.44
2018-11-07T11:01:26.321Z,101014.38
2018-11-07T11:02:26.367Z,101013.30
2018-11-07T11:03:29.749Z,101012.94
2018-11-07T11:04:25.995Z,101012.30
2018-11-07T11:05:28.339Z,101012.12
2018-11-07T11:06:27.667Z,101010.67
2018-11-07T11:07:28.324Z,101009.85
2018-11-07T11:08:28.793Z,101009.25
2018-11-07T11:09:29.294Z,101008.70
2018-11-07T11:10:28.686Z,101008.02
2018-11-07T11:11:51.144Z,101006.14
2018-11-07T11:12:30.040Z,101005.88
2018-11-07T11:15:19.905Z,100996.19
2018-11-07T11:16:18.660Z,100996.19
2018-11-07T11:17:21.576Z,100995.88
2018-11-07T11:18:19.089Z,100995.56
2018-11-07T11:19:19.401Z,100994.73